createdAt,value
2019-01-24T00:02:39.824Z,94.13
2019-01-24T00:07:47.002Z,89.57
2019-01-24T00:12:54.236Z,92.33
2019-01-24T00:18:01.442Z,81.07
2019-01-24T00:23:13.671Z,73.47
2019-01-24T00:28:21.384Z,60.40
2019-01-24T00:33:29.463Z,57.77
2019-01-24T00:38:36.631Z,55.23
2019-01-24T00:43:44.450Z,80.00
2019-01-24T00:48:51.597Z,79.17
2019-01-24T00:53:58.788Z,86.10
2019-01-24T00:59:06.047Z,76.90
2019-01-24T01:04:13.629Z,89.23
2019-01-24T01:09:20.771Z,72.47
2019-01-24T01:14:27.948Z,67.90
2019-01-24T01:19:35.023Z,64.00
2019-01-24T01:24:42.274Z,69.83
2019-01-24T01:29:49.481Z,81.87
2019-01-24T01:39:59.825Z,66.87
2019-01-24T01:45:09.545Z,48.83
2019-01-24T01:50:19.421Z,62.00
2019-01-24T01:55:26.545Z,55.57
2019-01-24T02:00:34.912Z,63.67
2019-01-24T02:05:42.002Z,55.07
2019-01-24T02:10:49.300Z,53.37
2019-01-24T02:15:56.907Z,48.50
2019-01-24T02:21:04.826Z,52.67
2019-01-24T02:26:11.987Z,66.90
2019-01-24T02:31:19.317Z,55.77
2019-01-24T02:36:26.616Z,60.03
2019-01-24T02:41:33.802Z,43.57
2019-01-24T02:46:42.117Z,44.87
2019-01-24T02:51:49.735Z,46.97
2019-01-24T02:56:56.818Z,48.23
2019-01-24T03:02:03.943Z,46.13
2019-01-24T03:07:11.234Z,47.60
2019-01-24T03:12:18.426Z,54.93
2019-01-24T03:17:26.976Z,54.43
2019-01-24T03:22:34.273Z,54.63
2019-01-24T03:27:41.479Z,60.43
2019-01-24T03:32:48.917Z,58.43
2019-01-24T03:37:57.650Z,47.13
2019-01-24T03:43:05.962Z,48.27
2019-01-24T03:48:13.460Z,41.97
2019-01-24T03:53:20.654Z,41.00
2019-01-24T03:58:28.020Z,34.73
2019-01-24T04:03:35.470Z,33.58
2019-01-24T04:08:42.795Z,37.07
2019-01-24T04:13:50.028Z,37.67
2019-01-24T04:18:57.114Z,61.53
2019-01-24T04:24:04.737Z,87.97
2019-01-24T04:29:11.821Z,59.80
2019-01-24T04:34:18.932Z,65.30
2019-01-24T04:39:26.044Z,54.63
2019-01-24T04:44:33.179Z,65.75
2019-01-24T04:49:40.436Z,91.60
2019-01-24T04:54:47.947Z,72.50
2019-01-24T04:59:55.174Z,73.00
2019-01-24T05:05:02.385Z,79.40
2019-01-24T05:10:09.613Z,68.90
2019-01-24T05:15:17.015Z,68.90
2019-01-24T05:20:32.989Z,80.73
2019-01-24T05:25:40.092Z,64.70
2019-01-24T05:30:47.368Z,78.27
2019-01-24T05:35:55.022Z,68.30
2019-01-24T05:41:04.473Z,66.45
2019-01-24T05:46:11.534Z,53.50
2019-01-24T05:51:18.747Z,85.42
2019-01-24T05:56:25.926Z,130.22
2019-01-24T06:01:33.582Z,162.23
2019-01-24T06:06:41.891Z,190.27
2019-01-24T06:11:49.078Z,179.77
2019-01-24T06:16:56.514Z,142.75
2019-01-24T06:22:03.611Z,107.00
2019-01-24T06:27:10.697Z,131.83
2019-01-24T06:32:17.811Z,133.87
2019-01-24T06:37:24.907Z,138.37
2019-01-24T06:42:32.006Z,131.80
2019-01-24T06:47:39.194Z,147.00
2019-01-24T06:52:46.397Z,187.40
2019-01-24T06:57:53.453Z,136.67
2019-01-24T07:03:01.648Z,97.97
2019-01-24T07:08:08.838Z,121.17
2019-01-24T07:13:16.067Z,160.23
2019-01-24T07:18:23.334Z,180.33
2019-01-24T07:23:30.542Z,161.70
2019-01-24T07:28:37.619Z,134.53
2019-01-24T07:33:44.828Z,133.80
2019-01-24T07:38:52.010Z,140.63
2019-01-24T07:43:59.393Z,186.70
2019-01-24T07:49:06.952Z,152.67
2019-01-24T07:54:14.170Z,158.90
2019-01-24T07:59:22.007Z,133.27
2019-01-24T08:04:29.222Z,112.33
2019-01-24T08:09:36.323Z,122.10
2019-01-24T08:14:43.515Z,113.87
2019-01-24T08:19:50.579Z,110.57
2019-01-24T08:24:57.700Z,121.10
2019-01-24T08:30:09.298Z,82.33
2019-01-24T08:35:16.653Z,69.20
2019-01-24T08:40:24.075Z,69.90
2019-01-24T08:45:31.166Z,115.87
2019-01-24T08:50:38.235Z,73.17
2019-01-24T08:55:45.564Z,91.27
2019-01-24T09:00:52.647Z,56.47
2019-01-24T09:05:59.714Z,79.33
2019-01-24T09:11:07.893Z,59.70
2019-01-24T09:16:14.976Z,84.57
2019-01-24T09:21:22.388Z,87.57
2019-01-24T09:26:29.815Z,71.30
2019-01-24T09:31:37.025Z,51.10
2019-01-24T09:36:44.332Z,85.27
2019-01-24T09:41:51.487Z,81.53
2019-01-24T09:46:58.546Z,84.93
2019-01-24T09:52:06.165Z,61.28
2019-01-24T09:57:13.371Z,73.72
2019-01-24T10:02:20.544Z,55.33
2019-01-24T10:07:27.635Z,66.77
2019-01-24T10:12:35.358Z,62.00
2019-01-24T10:17:42.574Z,68.27
2019-01-24T10:22:49.987Z,60.63
2019-01-24T10:27:57.864Z,55.73
2019-01-24T10:33:06.110Z,60.17
2019-01-24T10:38:13.513Z,84.33
2019-01-24T10:43:20.622Z,87.03
2019-01-24T10:48:27.839Z,76.67
2019-01-24T10:53:35.140Z,78.67
2019-01-24T10:58:42.752Z,70.93
2019-01-24T11:03:49.826Z,71.93
2019-01-24T11:08:56.901Z,79.83
2019-01-24T11:14:04.135Z,70.70
2019-01-24T11:19:11.664Z,65.70
2019-01-24T11:24:18.743Z,98.97
2019-01-24T11:29:27.135Z,93.77
2019-01-24T11:34:34.345Z,97.63
2019-01-24T11:39:41.450Z,116.77
2019-01-24T11:44:50.564Z,77.87
2019-01-24T11:49:57.795Z,62.57
2019-01-24T11:55:05.412Z,103.80
2019-01-24T12:00:28.585Z,69.77
2019-01-24T12:05:35.788Z,49.03
2019-01-24T12:10:43.017Z,65.03
2019-01-24T12:15:50.646Z,59.57
2019-01-24T12:20:57.838Z,99.30
2019-01-24T12:26:09.014Z,74.57
2019-01-24T12:31:16.197Z,86.50
2019-01-24T12:36:23.674Z,98.50
2019-01-24T12:41:30.790Z,79.93
2019-01-24T12:46:37.843Z,61.97
2019-01-24T12:51:45.047Z,102.37
2019-01-24T12:56:52.270Z,117.43
2019-01-24T13:02:00.096Z,131.37
2019-01-24T13:07:07.918Z,133.30
2019-01-24T13:12:15.554Z,127.92
2019-01-24T13:17:23.323Z,110.30
2019-01-24T13:22:30.674Z,149.23
2019-01-24T13:27:38.168Z,79.10
2019-01-24T13:32:45.542Z,92.27
2019-01-24T13:37:52.729Z,94.97
2019-01-24T13:43:00.861Z,74.23
2019-01-24T13:48:08.177Z,92.20
2019-01-24T13:53:15.529Z,89.17
2019-01-24T13:58:22.725Z,93.57
2019-01-24T14:04:00.049Z,89.50
2019-01-24T14:09:10.388Z,77.87
2019-01-24T14:14:17.695Z,75.97
2019-01-24T14:19:24.798Z,67.77
2019-01-24T14:24:32.988Z,42.00
2019-01-24T14:29:40.199Z,52.07
2019-01-24T14:34:47.318Z,74.23
2019-01-24T14:39:55.942Z,123.60
2019-01-24T14:45:03.254Z,95.70
2019-01-24T14:50:13.511Z,307.27
2019-01-24T14:55:20.793Z,127.30
2019-01-24T15:00:30.335Z,432.13
2019-01-24T15:05:37.811Z,370.10
2019-01-24T15:10:45.073Z,86.63
2019-01-24T15:15:52.298Z,288.70
2019-01-24T15:20:59.470Z,134.97
2019-01-24T15:26:08.355Z,146.37
2019-01-24T15:31:16.067Z,125.47
2019-01-24T15:36:23.401Z,223.00
2019-01-24T15:41:30.793Z,137.67
2019-01-24T15:46:38.313Z,87.63
2019-01-24T15:51:45.760Z,62.07
2019-01-24T15:56:53.221Z,87.73
2019-01-24T16:02:00.408Z,102.13
2019-01-24T16:07:07.522Z,58.63
2019-01-24T16:12:14.649Z,69.43
2019-01-24T16:17:22.023Z,98.83
2019-01-24T16:22:29.693Z,74.50
2019-01-24T16:27:36.949Z,86.00
2019-01-24T16:32:44.442Z,101.47
2019-01-24T16:37:51.514Z,66.07
2019-01-24T16:42:59.074Z,73.60
2019-01-24T16:48:07.082Z,74.73
2019-01-24T16:53:14.513Z,78.20
2019-01-24T16:58:21.604Z,77.53
2019-01-24T17:03:28.814Z,108.33
2019-01-24T17:08:35.944Z,45.77
2019-01-24T17:13:43.160Z,77.97
2019-01-24T17:18:51.393Z,87.87
2019-01-24T17:23:59.579Z,67.57
2019-01-24T17:29:06.994Z,66.67
2019-01-24T17:34:14.111Z,82.47
2019-01-24T17:39:21.353Z,76.12
2019-01-24T17:44:28.456Z,71.13
2019-01-24T17:49:35.778Z,77.37
2019-01-24T17:54:43.171Z,101.50
2019-01-24T17:59:50.383Z,113.77
2019-01-24T18:04:57.667Z,111.90
2019-01-24T18:10:06.615Z,133.47
2019-01-24T18:15:17.955Z,185.60
2019-01-24T18:20:27.154Z,200.43
2019-01-24T18:25:34.390Z,238.80
2019-01-24T18:30:41.823Z,156.37
2019-01-24T18:35:49.384Z,178.00
2019-01-24T18:40:58.103Z,173.90
2019-01-24T18:46:07.229Z,133.17
2019-01-24T18:51:16.531Z,165.60
2019-01-24T18:56:23.953Z,126.60
2019-01-24T19:01:31.275Z,109.93
2019-01-24T19:06:38.485Z,83.57
2019-01-24T19:11:45.900Z,115.93
2019-01-24T19:16:54.001Z,84.87
2019-01-24T19:22:01.642Z,86.33
2019-01-24T19:27:10.992Z,89.63
2019-01-24T19:32:18.231Z,99.28
2019-01-24T19:37:25.491Z,105.93
2019-01-24T19:48:18.757Z,75.13
2019-01-24T19:53:26.359Z,85.40
2019-01-24T19:58:33.563Z,87.33
2019-01-24T20:03:41.124Z,88.07
2019-01-24T20:08:49.353Z,84.23
2019-01-24T20:13:56.668Z,83.60
2019-01-24T20:19:04.062Z,90.73
2019-01-24T20:24:12.031Z,86.10
2019-01-24T20:29:20.668Z,77.57
2019-01-24T20:34:27.973Z,88.23
2019-01-24T20:39:37.193Z,61.57
2019-01-24T20:44:44.551Z,79.83
2019-01-24T20:49:52.628Z,89.53
2019-01-24T20:54:59.855Z,97.73
2019-01-24T21:00:15.632Z,98.33
2019-01-24T21:05:23.459Z,77.47
2019-01-24T21:10:31.148Z,218.87
2019-01-24T21:15:38.264Z,180.33
2019-01-24T21:20:46.501Z,86.90
2019-01-24T21:25:53.805Z,89.83
2019-01-24T21:31:01.018Z,131.73
2019-01-24T21:36:08.937Z,94.20
2019-01-24T21:41:17.120Z,113.80
2019-01-24T21:46:24.672Z,145.50
2019-01-24T21:51:32.341Z,135.67
2019-01-24T21:56:39.537Z,137.17
2019-01-24T22:01:47.118Z,148.83
2019-01-24T22:06:56.248Z,114.07
2019-01-24T22:12:04.503Z,118.53
2019-01-24T22:17:11.627Z,124.13
2019-01-24T22:22:18.775Z,113.80
2019-01-24T22:27:26.251Z,136.20
2019-01-24T22:32:33.383Z,193.97
2019-01-24T22:37:41.094Z,145.27
2019-01-24T22:42:48.402Z,169.40
2019-01-24T22:47:55.715Z,116.20
2019-01-24T22:53:03.535Z,108.43
2019-01-24T22:58:10.861Z,116.00
2019-01-24T23:03:21.361Z,112.27
2019-01-24T23:08:28.838Z,119.07
2019-01-24T23:13:37.143Z,83.40
2019-01-24T23:18:44.432Z,80.33
2019-01-24T23:23:51.685Z,87.50
2019-01-24T23:29:00.585Z,68.50
2019-01-24T23:34:07.894Z,75.77
2019-01-24T23:39:15.046Z,74.35
2019-01-24T23:44:22.216Z,74.97
2019-01-24T23:49:29.352Z,63.60
2019-01-24T23:54:36.571Z,63.70
2019-01-24T23:59:43.703Z,84.63
